Analomink, Pennsylvania
Current Conditions -  °F | °C
As of 8:53 PM on Friday 28 Nov 2014 (Local Time) from KMPO Reporting Station
Clear Clear  
Wind Chill:   Ceiling: Unl
Heat Index: 13°   Visibility: 10mi
Dew Point:   Wind: 6mph
Humidity: 77%   Direction: 310°NW
Pressure: 30.14"   Gusts: NA
Location:  41.05°N, 75.22°W
Report Text: KMPO 290153Z AUTO 31005KT 10SM CLR M11/M14 A3014 RMK AO2 SLP241 T11061139
Loading
Personal Weather Stations






























Interactive Weather Map New forecast layout! Learn more

10-Day Weather Forecast

Advertisements
Track Severe Weather on mobile